createdAt,value
2022-12-08T00:01:09.432Z,17.65
2022-12-08T00:06:57.323Z,17.98
2022-12-08T00:12:03.925Z,18.58
2022-12-08T00:17:08.330Z,17.73
2022-12-08T00:22:11.672Z,17.73
2022-12-08T00:27:16.365Z,17.63
2022-12-08T00:32:18.715Z,16.52
2022-12-08T00:37:21.017Z,16.60
2022-12-08T00:42:23.193Z,17.90
2022-12-08T00:47:25.377Z,17.02
2022-12-08T00:52:27.600Z,17.70
2022-12-08T00:57:30.065Z,16.85
2022-12-08T01:02:34.520Z,17.33
2022-12-08T01:07:36.973Z,18.10
2022-12-08T01:12:39.375Z,17.73
2022-12-08T01:17:41.789Z,16.67
2022-12-08T01:27:56.998Z,17.17
2022-12-08T01:32:59.289Z,17.52
2022-12-08T01:38:01.529Z,17.92
2022-12-08T01:43:04.054Z,17.48
2022-12-08T01:48:11.986Z,17.95
2022-12-08T01:53:22.147Z,18.90
2022-12-08T01:58:32.509Z,17.35
2022-12-08T02:03:41.246Z,17.38
2022-12-08T02:08:44.322Z,18.17
2022-12-08T02:13:47.992Z,17.77
2022-12-08T02:19:22.502Z,17.65
2022-12-08T02:24:39.619Z,17.98
2022-12-08T02:30:21.542Z,17.83
2022-12-08T02:35:43.717Z,18.15
2022-12-08T02:40:46.917Z,19.15
2022-12-08T02:45:57.358Z,17.92
2022-12-08T02:50:59.601Z,18.90
2022-12-08T02:56:24.932Z,19.52
2022-12-08T03:01:30.389Z,18.42
2022-12-08T03:06:52.532Z,18.27
2022-12-08T03:11:58.714Z,18.98
2022-12-08T03:17:01.902Z,19.90
2022-12-08T03:22:06.381Z,18.85
2022-12-08T03:27:12.549Z,17.55
2022-12-08T03:32:37.766Z,18.08
2022-12-08T03:37:41.239Z,18.25
2022-12-08T03:42:43.495Z,18.63
2022-12-08T03:47:45.698Z,20.15
2022-12-08T03:52:48.109Z,20.48
2022-12-08T03:57:50.361Z,19.80
2022-12-08T04:02:52.665Z,19.70
2022-12-08T04:07:57.846Z,19.13
2022-12-08T04:13:00.092Z,19.55
2022-12-08T04:18:02.299Z,19.33
2022-12-08T04:23:04.786Z,19.33
2022-12-08T04:28:07.283Z,19.73
2022-12-08T04:33:09.513Z,18.00
2022-12-08T04:38:11.848Z,19.98
2022-12-08T04:43:14.243Z,17.98
2022-12-08T04:48:16.842Z,19.15
2022-12-08T04:53:20.160Z,18.30
2022-12-08T04:58:22.792Z,19.30
2022-12-08T05:03:28.551Z,18.02
2022-12-08T05:08:32.204Z,18.02
2022-12-08T05:13:34.450Z,18.40
2022-12-08T05:18:37.930Z,18.70
2022-12-08T05:23:40.435Z,18.75
2022-12-08T05:28:43.559Z,19.00
2022-12-08T05:33:46.381Z,22.70
2022-12-08T05:38:48.658Z,19.33
2022-12-08T05:43:51.265Z,19.75
2022-12-08T05:48:53.577Z,19.25
2022-12-08T05:53:56.939Z,18.60
2022-12-08T05:58:59.258Z,18.70
2022-12-08T06:04:03.658Z,19.58
2022-12-08T06:09:06.593Z,23.33
2022-12-08T06:14:12.267Z,22.38
2022-12-08T06:19:15.577Z,21.55
2022-12-08T06:24:17.918Z,21.17
2022-12-08T06:29:20.142Z,19.55
2022-12-08T06:34:22.346Z,20.95
2022-12-08T06:39:24.538Z,19.98
2022-12-08T06:44:26.759Z,21.05
2022-12-08T06:49:29.149Z,21.92
2022-12-08T06:54:31.541Z,20.30
2022-12-08T06:59:33.812Z,43.10
2022-12-08T07:04:36.118Z,30.25
2022-12-08T07:09:38.450Z,30.92
2022-12-08T07:14:40.722Z,29.45
2022-12-08T07:19:42.941Z,34.97
2022-12-08T07:24:45.412Z,41.08
2022-12-08T07:29:47.606Z,42.65
2022-12-08T07:34:49.842Z,43.85
2022-12-08T07:39:52.580Z,40.67
2022-12-08T07:44:54.859Z,41.08
2022-12-08T07:49:57.113Z,39.38
2022-12-08T08:00:01.750Z,35.33
2022-12-08T08:05:13.871Z,29.08
2022-12-08T08:10:16.131Z,30.00
2022-12-08T08:15:19.389Z,29.73
2022-12-08T08:20:22.353Z,27.00
2022-12-08T08:25:24.612Z,25.23
2022-12-08T08:30:26.894Z,25.90
2022-12-08T08:35:29.170Z,24.73
2022-12-08T08:40:31.371Z,45.20
2022-12-08T08:45:34.209Z,45.78
2022-12-08T08:50:37.845Z,48.50
2022-12-08T08:55:40.311Z,47.92
2022-12-08T09:00:42.915Z,51.90
2022-12-08T09:05:45.369Z,51.45
2022-12-08T09:10:47.684Z,52.05
2022-12-08T09:15:49.992Z,50.60
2022-12-08T09:20:52.306Z,53.72
2022-12-08T09:25:54.561Z,43.55
2022-12-08T09:30:56.967Z,47.95
2022-12-08T09:36:03.523Z,48.30
2022-12-08T09:41:22.874Z,32.65
2022-12-08T09:46:28.822Z,32.53
2022-12-08T09:51:38.222Z,29.75
2022-12-08T09:56:40.585Z,25.02
2022-12-08T10:01:43.125Z,25.38
2022-12-08T10:06:57.992Z,27.27
2022-12-08T10:12:21.262Z,25.20
2022-12-08T10:17:28.949Z,22.25
2022-12-08T10:22:37.692Z,23.23
2022-12-08T10:27:42.094Z,24.08
2022-12-08T10:32:48.231Z,25.45
2022-12-08T10:38:06.565Z,23.83
2022-12-08T10:43:18.898Z,24.50
2022-12-08T10:48:23.714Z,41.58
2022-12-08T10:53:30.249Z,43.97
2022-12-08T10:58:40.870Z,45.42
2022-12-08T11:03:51.767Z,37.70
2022-12-08T11:08:57.197Z,30.67
2022-12-08T11:14:07.933Z,31.77
2022-12-08T11:19:16.469Z,26.48
2022-12-08T11:24:21.771Z,35.03
2022-12-08T11:29:24.093Z,41.65
2022-12-08T11:34:42.285Z,41.72
2022-12-08T11:39:49.346Z,40.25
2022-12-08T11:45:01.367Z,38.67
2022-12-08T11:50:16.675Z,38.35
2022-12-08T11:55:43.862Z,40.25
2022-12-08T12:00:49.832Z,37.95
2022-12-08T12:06:30.851Z,30.95
2022-12-08T12:12:11.077Z,27.90
2022-12-08T12:17:43.940Z,39.25
2022-12-08T12:22:50.496Z,36.03
2022-12-08T12:27:58.131Z,33.20
2022-12-08T12:33:02.410Z,26.77
2022-12-08T12:38:29.128Z,28.10
2022-12-08T12:43:35.072Z,27.35
2022-12-08T12:48:37.288Z,28.38
2022-12-08T12:53:39.462Z,29.67
2022-12-08T12:58:42.773Z,29.52
2022-12-08T13:03:49.945Z,29.00
2022-12-08T13:08:55.314Z,26.95
2022-12-08T13:14:03.885Z,28.65
2022-12-08T13:19:14.866Z,27.33
2022-12-08T13:24:35.122Z,27.23
2022-12-08T13:29:39.382Z,26.77
2022-12-08T13:34:45.616Z,26.73
2022-12-08T13:39:48.877Z,28.05
2022-12-08T13:45:20.178Z,27.98
2022-12-08T13:52:20.133Z,26.60
2022-12-08T13:57:00.848Z,28.42
2022-12-08T14:01:32.175Z,27.25
2022-12-08T14:06:38.561Z,26.95
2022-12-08T14:11:47.862Z,27.67
2022-12-08T14:16:54.533Z,28.90
2022-12-08T14:21:57.911Z,26.35
2022-12-08T14:27:02.985Z,27.40
2022-12-08T14:32:18.507Z,23.05
2022-12-08T14:37:21.306Z,22.48
2022-12-08T14:42:27.184Z,27.05
2022-12-08T14:47:31.556Z,26.27
2022-12-08T14:52:33.791Z,28.20
2022-12-08T14:57:36.423Z,25.63
2022-12-08T15:02:46.498Z,25.02
2022-12-08T15:07:51.961Z,23.70
2022-12-08T15:13:02.606Z,23.98
2022-12-08T15:18:18.538Z,24.70
2022-12-08T15:23:42.717Z,27.70
2022-12-08T15:28:44.915Z,29.15
2022-12-08T15:33:47.172Z,28.73
2022-12-08T15:38:49.450Z,28.60
2022-12-08T15:43:51.770Z,28.23
2022-12-08T15:48:58.089Z,28.13
2022-12-08T15:54:00.541Z,27.55
2022-12-08T15:59:03.020Z,26.20
2022-12-08T16:05:00.230Z,26.27
2022-12-08T16:09:33.983Z,28.17
2022-12-08T16:20:00.303Z,30.30
2022-12-08T16:25:17.842Z,26.67
2022-12-08T16:30:21.820Z,27.42
2022-12-08T16:35:24.262Z,25.67
2022-12-08T16:40:26.516Z,26.05
2022-12-08T16:45:30.348Z,34.38
2022-12-08T16:50:35.054Z,27.15
2022-12-08T16:55:37.325Z,27.13
2022-12-08T17:00:39.867Z,27.77
2022-12-08T17:05:42.409Z,29.13
2022-12-08T17:11:04.629Z,28.27
2022-12-08T17:16:10.229Z,27.23
2022-12-08T17:21:14.760Z,27.38
2022-12-08T17:26:17.342Z,27.90
2022-12-08T17:31:22.268Z,29.35
2022-12-08T17:36:27.068Z,27.52
2022-12-08T17:41:30.372Z,26.25
2022-12-08T17:46:35.729Z,27.42
2022-12-08T17:51:42.445Z,28.20
2022-12-08T17:56:45.241Z,29.83
2022-12-08T18:01:47.686Z,27.85
2022-12-08T18:06:49.975Z,28.05
2022-12-08T18:11:52.636Z,28.20
2022-12-08T18:16:54.921Z,30.83
2022-12-08T18:21:57.274Z,31.75
2022-12-08T18:26:59.587Z,29.73
2022-12-08T18:32:02.451Z,28.35
2022-12-08T18:37:04.987Z,28.20
2022-12-08T18:42:23.032Z,28.83
2022-12-08T18:47:25.436Z,26.33
2022-12-08T18:52:32.255Z,26.48
2022-12-08T18:57:38.385Z,25.33
2022-12-08T19:02:41.926Z,25.75
2022-12-08T19:07:45.672Z,40.83
2022-12-08T19:12:51.008Z,37.13
2022-12-08T19:17:53.415Z,25.38
2022-12-08T19:22:55.652Z,26.15
2022-12-08T19:27:57.945Z,25.17
2022-12-08T19:33:00.260Z,25.45
2022-12-08T19:38:02.574Z,27.70
2022-12-08T19:43:24.776Z,29.42
2022-12-08T19:48:27.939Z,30.33
2022-12-08T19:53:31.035Z,28.27
2022-12-08T19:58:33.324Z,27.23
2022-12-08T20:03:35.668Z,25.58
2022-12-08T20:08:38.080Z,25.83
2022-12-08T20:13:41.469Z,25.58
2022-12-08T20:18:44.477Z,25.67
2022-12-08T20:23:49.620Z,38.67
2022-12-08T20:28:52.153Z,25.15
2022-12-08T20:33:55.249Z,25.08
2022-12-08T20:38:57.785Z,23.80
2022-12-08T20:44:00.102Z,25.10
2022-12-08T20:49:08.080Z,24.38
2022-12-08T20:54:11.501Z,25.50
2022-12-08T20:59:17.169Z,24.38
2022-12-08T21:04:20.103Z,26.13
2022-12-08T21:09:22.708Z,24.85
2022-12-08T21:14:25.242Z,25.58
2022-12-08T21:19:27.742Z,26.08
2022-12-08T21:24:33.977Z,24.33
2022-12-08T21:29:37.101Z,22.65
2022-12-08T21:34:39.486Z,23.17
2022-12-08T21:39:42.161Z,24.35
2022-12-08T21:44:44.778Z,24.88
2022-12-08T21:49:48.065Z,25.38
2022-12-08T21:54:50.396Z,26.20
2022-12-08T21:59:53.133Z,26.77
2022-12-08T22:05:20.287Z,26.98
2022-12-08T22:10:23.723Z,26.33
2022-12-08T22:15:26.148Z,26.65
2022-12-08T22:20:28.523Z,25.80
2022-12-08T22:25:30.740Z,27.95
2022-12-08T22:30:38.611Z,27.83
2022-12-08T22:35:41.424Z,29.27
2022-12-08T22:40:43.608Z,29.13
2022-12-08T22:45:46.376Z,27.17
2022-12-08T22:50:48.711Z,27.13
2022-12-08T22:55:50.928Z,27.88
2022-12-08T23:00:53.318Z,28.42
2022-12-08T23:05:55.659Z,28.52
2022-12-08T23:10:58.406Z,27.65
2022-12-08T23:16:00.771Z,28.15
2022-12-08T23:21:06.378Z,29.65
2022-12-08T23:26:27.005Z,29.20
2022-12-08T23:31:30.426Z,29.40
2022-12-08T23:36:33.471Z,29.05
2022-12-08T23:41:36.574Z,28.33
2022-12-08T23:46:39.395Z,27.42
2022-12-08T23:51:42.394Z,28.77
2022-12-08T23:56:44.818Z,27.58
